createdAt,value
2022-08-23T00:00:01.349Z,61
2022-08-23T00:01:08.056Z,61
2022-08-23T00:02:23.833Z,61
2022-08-23T00:03:24.622Z,61
2022-08-23T00:04:30.386Z,61
2022-08-23T00:05:35.225Z,62
2022-08-23T00:06:35.594Z,62
2022-08-23T00:07:38.453Z,62
2022-08-23T00:08:39.376Z,62
2022-08-23T00:09:49.116Z,62
2022-08-23T00:10:49.523Z,62
2022-08-23T00:11:49.925Z,62
2022-08-23T00:12:50.297Z,62
2022-08-23T00:13:50.701Z,62
2022-08-23T00:14:51.502Z,62
2022-08-23T00:15:53.115Z,62
2022-08-23T00:16:53.521Z,62
2022-08-23T00:17:53.891Z,63
2022-08-23T00:18:54.297Z,63
2022-08-23T00:19:55.049Z,63
2022-08-23T00:20:55.450Z,63
2022-08-23T00:21:55.868Z,63
2022-08-23T00:22:56.271Z,63
2022-08-23T00:23:56.687Z,63
2022-08-23T00:24:57.477Z,63
2022-08-23T00:25:57.853Z,63
2022-08-23T00:26:58.247Z,63
2022-08-23T00:27:58.761Z,63
2022-08-23T00:28:59.222Z,63
2022-08-23T00:30:00.031Z,63
2022-08-23T00:31:00.771Z,63
2022-08-23T00:32:01.147Z,63
2022-08-23T00:33:01.538Z,64
2022-08-23T00:34:01.941Z,64
2022-08-23T00:35:02.682Z,64
2022-08-23T00:36:03.097Z,64
2022-08-23T00:37:03.497Z,64
2022-08-23T00:38:32.039Z,64
2022-08-23T00:39:33.922Z,64
2022-08-23T00:40:34.677Z,65
2022-08-23T00:41:35.088Z,65
2022-08-23T00:42:35.485Z,65
2022-08-23T00:43:35.859Z,65
2022-08-23T00:44:36.592Z,65
2022-08-23T00:45:37.014Z,65
2022-08-23T00:46:37.742Z,65
2022-08-23T00:47:38.115Z,65
2022-08-23T00:48:38.539Z,65
2022-08-23T00:49:39.358Z,65
2022-08-23T00:50:39.781Z,65
2022-08-23T00:51:53.107Z,65
2022-08-23T00:52:53.828Z,65
2022-08-23T00:53:54.194Z,65
2022-08-23T00:54:55.002Z,66
2022-08-23T00:55:55.402Z,66
2022-08-23T00:56:55.784Z,66
2022-08-23T00:57:56.202Z,66
2022-08-23T00:58:56.786Z,66
2022-08-23T00:59:57.578Z,66
2022-08-23T01:00:57.943Z,66
2022-08-23T01:01:58.354Z,66
2022-08-23T01:02:58.740Z,66
2022-08-23T01:04:04.905Z,66
2022-08-23T01:05:05.977Z,66
2022-08-23T01:06:06.363Z,66
2022-08-23T01:07:06.784Z,66
2022-08-23T01:08:07.174Z,67
2022-08-23T01:09:14.868Z,67
2022-08-23T01:10:20.066Z,67
2022-08-23T01:11:21.607Z,67
2022-08-23T01:12:33.069Z,67
2022-08-23T01:13:33.730Z,67
2022-08-23T01:14:34.535Z,67
2022-08-23T01:15:35.283Z,67
2022-08-23T01:16:35.701Z,67
2022-08-23T01:17:36.064Z,67
2022-08-23T01:18:36.443Z,67
2022-08-23T01:19:37.197Z,67
2022-08-23T01:20:37.586Z,67
2022-08-23T01:21:37.974Z,68
2022-08-23T01:22:41.650Z,68
2022-08-23T01:23:42.045Z,68
2022-08-23T01:25:06.514Z,68
2022-08-23T01:26:09.057Z,68
2022-08-23T01:27:09.462Z,68
2022-08-23T01:28:09.871Z,68
2022-08-23T01:29:10.269Z,68
2022-08-23T01:30:11.058Z,68
2022-08-23T01:31:11.817Z,68
2022-08-23T01:32:12.206Z,68
2022-08-23T01:33:12.608Z,68
2022-08-23T01:34:13.013Z,68
2022-08-23T01:35:13.790Z,68
2022-08-23T01:36:14.216Z,68
2022-08-23T01:37:14.626Z,68
2022-08-23T01:38:15.022Z,68
2022-08-23T01:39:15.399Z,69
2022-08-23T01:40:16.375Z,69
2022-08-23T01:41:16.795Z,69
2022-08-23T01:42:17.157Z,69
2022-08-23T01:43:17.539Z,69
2022-08-23T01:44:17.926Z,69
2022-08-23T01:45:18.736Z,69
2022-08-23T01:46:19.493Z,69
2022-08-23T01:47:19.863Z,69
2022-08-23T01:48:20.277Z,69
2022-08-23T01:49:20.651Z,70
2022-08-23T01:50:21.447Z,70
2022-08-23T01:51:21.834Z,70
2022-08-23T01:52:22.218Z,70
2022-08-23T01:53:22.600Z,70
2022-08-23T01:54:22.991Z,70
2022-08-23T01:55:23.655Z,70
2022-08-23T01:56:31.464Z,70
2022-08-23T01:57:39.558Z,70
2022-08-23T01:58:39.965Z,70
2022-08-23T01:59:40.776Z,70
2022-08-23T02:00:41.177Z,70
2022-08-23T02:01:42.061Z,70
2022-08-23T02:02:42.532Z,70
2022-08-23T02:03:42.945Z,70
2022-08-23T02:04:43.756Z,70
2022-08-23T02:05:44.168Z,70
2022-08-23T02:06:44.602Z,70
2022-08-23T02:07:44.997Z,70
2022-08-23T02:08:45.412Z,70
2022-08-23T02:09:46.169Z,70
2022-08-23T02:10:46.562Z,70
2022-08-23T02:11:46.960Z,70
2022-08-23T02:12:47.369Z,70
2022-08-23T02:13:47.751Z,70
2022-08-23T02:14:48.427Z,70
2022-08-23T02:15:48.790Z,70
2022-08-23T02:17:02.899Z,70
2022-08-23T02:18:04.513Z,70
2022-08-23T02:19:04.903Z,70
2022-08-23T02:20:05.653Z,70
2022-08-23T02:22:06.477Z,71
2022-08-23T02:23:06.841Z,71
2022-08-23T02:24:07.252Z,71
2022-08-23T02:25:07.937Z,71
2022-08-23T02:26:08.297Z,71
2022-08-23T02:27:08.708Z,71
2022-08-23T02:28:09.094Z,71
2022-08-23T02:29:09.455Z,71
2022-08-23T02:30:10.225Z,71
2022-08-23T02:31:11.334Z,71
2022-08-23T02:32:11.941Z,71
2022-08-23T02:33:12.342Z,71
2022-08-23T02:34:12.795Z,71
2022-08-23T02:35:13.592Z,71
2022-08-23T02:36:13.993Z,71
2022-08-23T02:37:14.401Z,71
2022-08-23T02:38:14.793Z,71
2022-08-23T02:39:15.198Z,71
2022-08-23T02:40:16.034Z,71
2022-08-23T02:41:16.473Z,71
2022-08-23T02:42:16.849Z,71
2022-08-23T02:43:17.243Z,72
2022-08-23T02:44:17.618Z,72
2022-08-23T02:45:18.419Z,72
2022-08-23T02:46:18.825Z,72
2022-08-23T02:47:19.634Z,72
2022-08-23T02:48:20.004Z,72
2022-08-23T02:49:20.398Z,72
2022-08-23T02:50:21.113Z,72
2022-08-23T02:51:21.498Z,72
2022-08-23T02:52:21.866Z,72
2022-08-23T02:53:22.253Z,72
2022-08-23T02:54:22.655Z,72
2022-08-23T02:55:23.511Z,72
2022-08-23T02:56:23.906Z,72
2022-08-23T02:57:24.301Z,72
2022-08-23T02:58:24.690Z,72
2022-08-23T02:59:25.060Z,72
2022-08-23T03:00:25.794Z,72
2022-08-23T03:01:26.190Z,72
2022-08-23T03:02:26.700Z,72
2022-08-23T03:03:27.215Z,72
2022-08-23T03:04:28.026Z,72
2022-08-23T03:05:28.425Z,72
2022-08-23T03:06:28.828Z,72
2022-08-23T03:07:29.198Z,72
2022-08-23T03:08:29.591Z,72
2022-08-23T03:09:30.294Z,72
2022-08-23T03:10:30.695Z,73
2022-08-23T03:11:31.094Z,73
2022-08-23T03:12:31.488Z,73
2022-08-23T03:13:31.892Z,73
2022-08-23T03:14:32.700Z,73
2022-08-23T03:15:33.927Z,73
2022-08-23T03:16:34.341Z,73
2022-08-23T03:17:35.105Z,73
2022-08-23T03:18:35.556Z,74
2022-08-23T03:19:36.297Z,74
2022-08-23T03:20:36.670Z,74
2022-08-23T03:21:37.067Z,74
2022-08-23T03:22:37.434Z,74
2022-08-23T03:23:37.829Z,74
2022-08-23T03:24:38.634Z,74
2022-08-23T03:25:39.051Z,74
2022-08-23T03:26:39.447Z,74
2022-08-23T03:27:45.018Z,74
2022-08-23T03:28:45.501Z,74
2022-08-23T03:29:46.280Z,74
2022-08-23T03:30:46.642Z,74
2022-08-23T03:31:47.010Z,74
2022-08-23T03:32:48.943Z,74
2022-08-23T03:33:49.829Z,74
2022-08-23T03:34:50.638Z,74
2022-08-23T03:35:51.014Z,74
2022-08-23T03:36:51.419Z,74
2022-08-23T03:37:55.067Z,75
2022-08-23T03:38:55.700Z,75
2022-08-23T03:39:56.484Z,75
2022-08-23T03:40:56.910Z,75
2022-08-23T03:41:57.284Z,75
2022-08-23T03:42:57.661Z,75
2022-08-23T03:43:58.043Z,75
2022-08-23T03:45:02.315Z,75
2022-08-23T03:46:03.177Z,75
2022-08-23T03:47:03.545Z,75
2022-08-23T03:48:04.316Z,75
2022-08-23T03:49:04.719Z,75
2022-08-23T03:50:05.460Z,75
2022-08-23T03:51:05.915Z,75
2022-08-23T03:52:06.306Z,75
2022-08-23T03:53:06.713Z,75
2022-08-23T03:54:12.386Z,75
2022-08-23T03:55:13.202Z,75
2022-08-23T03:56:13.611Z,75
2022-08-23T03:57:14.011Z,75
2022-08-23T03:58:14.414Z,75
2022-08-23T03:59:14.783Z,75
2022-08-23T04:00:15.408Z,75
2022-08-23T04:01:24.157Z,75
2022-08-23T04:02:27.012Z,75
2022-08-23T04:03:27.759Z,75
2022-08-23T04:04:28.149Z,75
2022-08-23T04:05:28.914Z,75
2022-08-23T04:06:29.308Z,75
2022-08-23T04:07:29.714Z,75
2022-08-23T04:08:33.914Z,75
2022-08-23T04:09:34.540Z,75
2022-08-23T04:10:35.347Z,75
2022-08-23T04:11:35.712Z,75
2022-08-23T04:12:36.083Z,75
2022-08-23T04:13:36.456Z,76
2022-08-23T04:14:37.259Z,76
2022-08-23T04:15:37.624Z,76
2022-08-23T04:16:38.160Z,76
2022-08-23T04:17:38.529Z,76
2022-08-23T04:18:39.281Z,76
2022-08-23T04:19:39.994Z,76
2022-08-23T04:20:40.398Z,76
2022-08-23T04:21:40.781Z,76
2022-08-23T04:22:41.182Z,76
2022-08-23T04:23:41.595Z,76
2022-08-23T04:24:42.432Z,76
2022-08-23T04:25:42.833Z,76
2022-08-23T04:26:43.556Z,76
2022-08-23T04:27:45.003Z,76
2022-08-23T04:28:45.410Z,76
2022-08-23T04:29:46.192Z,76
2022-08-23T04:30:46.972Z,76
2022-08-23T04:31:47.442Z,76
2022-08-23T04:32:49.385Z,76
2022-08-23T04:33:52.528Z,76
2022-08-23T04:34:53.462Z,76
2022-08-23T04:35:53.856Z,76
2022-08-23T04:36:55.473Z,76
2022-08-23T04:37:56.017Z,76
2022-08-23T04:38:56.409Z,76
2022-08-23T04:39:57.151Z,76
2022-08-23T04:40:57.575Z,76
2022-08-23T04:41:57.976Z,76
2022-08-23T04:42:58.370Z,76
2022-08-23T04:43:58.763Z,76
2022-08-23T04:44:59.492Z,76
2022-08-23T04:45:59.868Z,76
2022-08-23T04:47:00.285Z,76
2022-08-23T04:48:00.840Z,76
2022-08-23T04:49:01.755Z,76
2022-08-23T04:50:02.499Z,76
2022-08-23T04:51:02.894Z,76
2022-08-23T04:52:03.291Z,76
2022-08-23T04:53:03.660Z,76
2022-08-23T04:54:04.062Z,76
2022-08-23T04:55:04.869Z,76
2022-08-23T04:56:05.240Z,76
2022-08-23T04:57:05.639Z,76
2022-08-23T04:58:06.051Z,76
2022-08-23T04:59:06.443Z,76
2022-08-23T05:00:07.265Z,76
2022-08-23T05:01:07.698Z,76
2022-08-23T05:02:08.147Z,76
2022-08-23T05:03:08.532Z,76
2022-08-23T05:04:09.241Z,76
2022-08-23T05:05:10.203Z,76
2022-08-23T05:06:10.563Z,77
2022-08-23T05:07:10.957Z,77
2022-08-23T05:08:11.367Z,77
2022-08-23T05:09:11.749Z,77
2022-08-23T05:10:12.516Z,77
2022-08-23T05:11:12.927Z,77
2022-08-23T05:12:13.340Z,77
2022-08-23T05:13:13.710Z,77
2022-08-23T05:14:14.073Z,77
2022-08-23T05:15:14.893Z,77
2022-08-23T05:16:15.299Z,77
2022-08-23T05:17:15.668Z,77
2022-08-23T05:18:16.062Z,77
2022-08-23T05:19:16.893Z,77
2022-08-23T05:20:17.631Z,77
2022-08-23T05:21:18.043Z,77
2022-08-23T05:22:18.422Z,77
2022-08-23T05:23:18.791Z,77
2022-08-23T05:24:23.840Z,77
2022-08-23T05:25:24.650Z,76
2022-08-23T05:26:25.045Z,76
2022-08-23T05:27:25.420Z,76
2022-08-23T05:28:25.809Z,76
2022-08-23T05:29:26.175Z,76
2022-08-23T05:30:28.225Z,76
2022-08-23T05:31:28.614Z,76
2022-08-23T05:32:33.219Z,76
2022-08-23T05:33:33.951Z,76
2022-08-23T05:34:34.699Z,75
2022-08-23T05:35:35.091Z,75
2022-08-23T05:36:35.512Z,75
2022-08-23T05:37:35.914Z,75
2022-08-23T05:38:36.317Z,75
2022-08-23T05:39:37.413Z,75
2022-08-23T05:40:38.017Z,75
2022-08-23T05:41:38.696Z,75
2022-08-23T05:42:39.138Z,75
2022-08-23T05:43:39.503Z,75
2022-08-23T05:44:40.225Z,75
2022-08-23T05:45:40.853Z,76
2022-08-23T05:46:43.940Z,76
2022-08-23T05:47:44.321Z,76
2022-08-23T05:48:45.114Z,76
2022-08-23T05:49:45.816Z,76
2022-08-23T05:50:46.202Z,76
2022-08-23T05:51:46.559Z,76
2022-08-23T05:52:52.217Z,76
2022-08-23T05:53:52.588Z,75
2022-08-23T05:54:53.021Z,75
2022-08-23T05:55:53.403Z,75
2022-08-23T05:56:53.776Z,75
2022-08-23T05:57:54.180Z,75
2022-08-23T05:58:59.104Z,75
2022-08-23T06:00:00.591Z,75
2022-08-23T06:01:00.987Z,75
2022-08-23T06:02:01.442Z,75
2022-08-23T06:03:01.806Z,75
2022-08-23T06:04:02.212Z,75
2022-08-23T06:05:03.038Z,75
2022-08-23T06:06:03.452Z,75
2022-08-23T06:07:03.855Z,75
2022-08-23T06:08:04.232Z,75
2022-08-23T06:09:04.651Z,75
2022-08-23T06:10:05.426Z,75
2022-08-23T06:11:05.897Z,75
2022-08-23T06:12:06.286Z,75
2022-08-23T06:13:06.673Z,75
2022-08-23T06:14:07.142Z,74
2022-08-23T06:15:07.958Z,74
2022-08-23T06:16:14.788Z,74
2022-08-23T06:17:15.768Z,74
2022-08-23T06:18:16.175Z,74
2022-08-23T06:19:16.536Z,74
2022-08-23T06:20:17.221Z,74
2022-08-23T06:21:17.676Z,73
2022-08-23T06:22:18.075Z,73
2022-08-23T06:23:18.438Z,73
2022-08-23T06:24:18.827Z,73
2022-08-23T06:25:20.850Z,73
2022-08-23T06:26:21.217Z,73
2022-08-23T06:27:21.621Z,73
2022-08-23T06:28:25.519Z,73
2022-08-23T06:29:26.238Z,72
2022-08-23T06:30:27.021Z,72
2022-08-23T06:31:27.543Z,72
2022-08-23T06:32:33.310Z,72
2022-08-23T06:33:33.791Z,72
2022-08-23T06:34:34.535Z,71
2022-08-23T06:35:39.314Z,71
2022-08-23T06:36:40.551Z,71
2022-08-23T06:37:40.925Z,71
2022-08-23T06:38:41.322Z,71
2022-08-23T06:39:42.164Z,70
2022-08-23T06:40:42.891Z,70
2022-08-23T06:41:43.389Z,70
2022-08-23T06:42:43.797Z,70
2022-08-23T06:43:44.164Z,70
2022-08-23T06:44:44.902Z,70
2022-08-23T06:45:52.373Z,70
2022-08-23T06:46:58.783Z,70
2022-08-23T06:47:59.263Z,70
2022-08-23T06:48:59.675Z,70
2022-08-23T06:50:00.432Z,70
2022-08-23T06:51:01.237Z,70
2022-08-23T06:52:02.133Z,70
2022-08-23T06:53:02.500Z,70
2022-08-23T06:54:07.733Z,70
2022-08-23T06:55:13.635Z,70
2022-08-23T06:56:14.344Z,70
2022-08-23T06:57:14.716Z,70
2022-08-23T06:58:15.097Z,70
2022-08-23T06:59:15.462Z,70
2022-08-23T07:00:20.226Z,70
2022-08-23T07:01:44.000Z,70
2022-08-23T07:02:45.480Z,70
2022-08-23T07:03:50.574Z,70
2022-08-23T07:04:51.306Z,70
2022-08-23T07:05:51.696Z,70
2022-08-23T07:06:52.440Z,70
2022-08-23T07:07:52.819Z,70
2022-08-23T07:08:53.224Z,69
2022-08-23T07:09:54.058Z,69
2022-08-23T07:10:54.433Z,69
2022-08-23T07:11:54.859Z,69
2022-08-23T07:12:55.323Z,69
2022-08-23T07:13:55.719Z,69
2022-08-23T07:14:56.437Z,69
2022-08-23T07:15:56.870Z,69
2022-08-23T07:16:57.353Z,69
2022-08-23T07:17:58.946Z,69
2022-08-23T07:18:59.347Z,69
2022-08-23T07:20:00.166Z,69
2022-08-23T07:21:00.548Z,68
2022-08-23T07:22:01.360Z,68
2022-08-23T07:23:01.860Z,68
2022-08-23T07:24:02.368Z,68
2022-08-23T07:25:03.186Z,68
2022-08-23T07:26:03.623Z,68
2022-08-23T07:27:04.036Z,68
2022-08-23T07:28:06.531Z,68
2022-08-23T07:29:09.065Z,67
2022-08-23T07:30:09.747Z,67
2022-08-23T07:31:11.408Z,67
2022-08-23T07:32:15.364Z,66
2022-08-23T07:33:15.775Z,66
2022-08-23T07:34:16.384Z,65
2022-08-23T07:35:17.219Z,65
2022-08-23T07:36:18.351Z,64
2022-08-23T07:37:19.339Z,64
2022-08-23T07:38:19.731Z,64
2022-08-23T07:39:20.115Z,63
2022-08-23T07:40:21.008Z,63
2022-08-23T07:41:21.538Z,62
2022-08-23T07:42:22.729Z,62
2022-08-23T07:43:24.592Z,62
2022-08-23T07:44:27.166Z,62
2022-08-23T07:45:28.257Z,62
2022-08-23T07:46:28.687Z,61
2022-08-23T07:47:29.120Z,61
2022-08-23T07:48:50.619Z,61
2022-08-23T07:49:53.683Z,59
2022-08-23T07:50:56.683Z,59
2022-08-23T07:51:58.597Z,59
2022-08-23T07:52:59.295Z,59
2022-08-23T07:53:59.699Z,59
2022-08-23T07:55:00.128Z,59
2022-08-23T07:56:00.922Z,59
2022-08-23T07:57:03.686Z,59
2022-08-23T07:58:04.057Z,59
2022-08-23T07:59:04.465Z,59
2022-08-23T08:00:04.864Z,59
2022-08-23T08:01:05.598Z,59
2022-08-23T08:02:06.051Z,59
2022-08-23T08:03:06.506Z,58
2022-08-23T08:04:07.003Z,58
2022-08-23T08:05:07.389Z,58
2022-08-23T08:06:08.149Z,58
2022-08-23T08:07:19.210Z,58
2022-08-23T08:08:21.371Z,58
2022-08-23T08:09:21.773Z,57
2022-08-23T08:10:22.225Z,57
2022-08-23T08:11:23.103Z,57
2022-08-23T08:12:23.492Z,57
2022-08-23T08:13:23.901Z,57
2022-08-23T08:14:24.671Z,57
2022-08-23T08:15:25.100Z,57
2022-08-23T08:16:25.821Z,57
2022-08-23T08:17:27.620Z,55
2022-08-23T08:18:28.253Z,55
2022-08-23T08:19:28.628Z,55
2022-08-23T08:20:29.033Z,55
2022-08-23T08:21:29.850Z,54
2022-08-23T08:22:30.235Z,54
2022-08-23T08:23:31.046Z,54
2022-08-23T08:24:31.418Z,53
2022-08-23T08:25:31.799Z,53
2022-08-23T08:26:32.603Z,53
2022-08-23T08:27:33.275Z,52
2022-08-23T08:28:35.535Z,52
2022-08-23T08:29:35.949Z,52
2022-08-23T08:30:36.321Z,51
2022-08-23T08:31:37.173Z,51
2022-08-23T08:32:37.864Z,51
2022-08-23T08:33:38.317Z,51
2022-08-23T08:34:38.702Z,51
2022-08-23T08:35:39.136Z,51
2022-08-23T08:36:40.045Z,51
2022-08-23T08:37:40.637Z,50
2022-08-23T08:38:47.883Z,50
2022-08-23T08:39:51.082Z,50
2022-08-23T08:40:51.536Z,50
2022-08-23T08:41:58.786Z,50
2022-08-23T08:43:05.298Z,50
2022-08-23T08:44:05.742Z,50
2022-08-23T08:45:06.158Z,50
2022-08-23T08:46:07.280Z,50
2022-08-23T08:47:08.206Z,50
2022-08-23T08:48:13.205Z,49
2022-08-23T08:49:14.064Z,49
2022-08-23T08:50:14.480Z,49
2022-08-23T08:51:14.849Z,49
2022-08-23T08:52:15.279Z,49
2022-08-23T08:53:15.721Z,49
2022-08-23T08:54:16.544Z,49
2022-08-23T08:55:16.940Z,49
2022-08-23T08:56:17.738Z,49
2022-08-23T08:57:18.228Z,49
2022-08-23T08:58:25.614Z,49
2022-08-23T08:59:26.022Z,49
2022-08-23T09:00:26.423Z,48
2022-08-23T09:01:26.859Z,48
2022-08-23T09:02:33.011Z,48
2022-08-23T09:03:33.949Z,48
2022-08-23T09:04:34.347Z,48
2022-08-23T09:05:34.740Z,48
2022-08-23T09:06:35.145Z,48
2022-08-23T09:07:35.942Z,48
2022-08-23T09:08:36.348Z,47
2022-08-23T09:09:37.154Z,47
2022-08-23T09:10:37.546Z,47
2022-08-23T09:11:37.913Z,47
2022-08-23T09:12:38.671Z,47
2022-08-23T09:13:41.969Z,47
2022-08-23T09:14:45.890Z,47
2022-08-23T09:15:46.325Z,47
2022-08-23T09:16:46.754Z,47
2022-08-23T09:17:47.551Z,47
2022-08-23T09:18:47.916Z,47
2022-08-23T09:19:48.318Z,46
2022-08-23T09:20:48.715Z,46
2022-08-23T09:21:49.120Z,46
2022-08-23T09:22:49.911Z,46
2022-08-23T09:24:00.607Z,46
2022-08-23T09:25:01.585Z,46
2022-08-23T09:26:03.857Z,45
2022-08-23T09:27:04.523Z,45
2022-08-23T09:28:05.255Z,45
2022-08-23T09:29:05.679Z,45
2022-08-23T09:30:06.129Z,45
2022-08-23T09:31:08.364Z,45
2022-08-23T09:32:08.925Z,45
2022-08-23T09:33:15.108Z,45
2022-08-23T09:34:15.500Z,46
2022-08-23T09:35:15.875Z,46
2022-08-23T09:36:16.282Z,46
2022-08-23T09:37:16.670Z,46
2022-08-23T09:38:17.445Z,45
2022-08-23T09:39:17.844Z,45
2022-08-23T09:40:18.771Z,45
2022-08-23T09:41:19.202Z,45
2022-08-23T09:42:19.638Z,45
2022-08-23T09:43:20.423Z,45
2022-08-23T09:44:20.787Z,45
2022-08-23T09:45:21.196Z,45
2022-08-23T09:46:21.629Z,45
2022-08-23T09:47:22.050Z,45
2022-08-23T09:48:22.786Z,42
2022-08-23T09:49:23.150Z,42
2022-08-23T09:50:23.542Z,42
2022-08-23T09:51:23.925Z,43
2022-08-23T09:52:25.668Z,43
2022-08-23T09:53:26.457Z,43
2022-08-23T09:54:26.832Z,43
2022-08-23T09:55:27.621Z,43
2022-08-23T09:56:28.007Z,43
2022-08-23T09:57:28.407Z,43
2022-08-23T09:58:29.156Z,43
2022-08-23T09:59:29.555Z,44
2022-08-23T10:00:29.966Z,44
2022-08-23T10:01:30.367Z,44
2022-08-23T10:02:30.788Z,42
2022-08-23T10:03:32.290Z,42
2022-08-23T10:04:32.726Z,42
2022-08-23T10:05:33.147Z,42
2022-08-23T10:06:33.524Z,42
2022-08-23T10:07:33.921Z,42
2022-08-23T10:08:36.621Z,42
2022-08-23T10:09:38.878Z,40
2022-08-23T10:10:39.572Z,40
2022-08-23T10:11:39.932Z,40
2022-08-23T10:12:40.401Z,40
2022-08-23T10:13:41.238Z,40
2022-08-23T10:14:43.249Z,40
2022-08-23T10:15:43.840Z,40
2022-08-23T10:16:44.213Z,40
2022-08-23T10:17:44.614Z,40
2022-08-23T10:18:45.419Z,40
2022-08-23T10:19:47.810Z,40
2022-08-23T10:20:48.364Z,40
2022-08-23T10:21:48.753Z,39
2022-08-23T10:22:49.119Z,39
2022-08-23T10:23:49.812Z,39
2022-08-23T10:24:50.200Z,39
2022-08-23T10:25:50.944Z,39
2022-08-23T10:26:51.307Z,39
2022-08-23T10:27:51.694Z,38
2022-08-23T10:28:52.435Z,38
2022-08-23T10:29:52.827Z,38
2022-08-23T10:30:53.279Z,38
2022-08-23T10:31:57.964Z,38
2022-08-23T10:32:59.626Z,38
2022-08-23T10:34:00.425Z,38
2022-08-23T10:35:00.782Z,38
2022-08-23T10:36:01.164Z,38
2022-08-23T10:37:01.533Z,38
2022-08-23T10:38:02.094Z,38
2022-08-23T10:39:02.876Z,38
2022-08-23T10:40:04.371Z,38
2022-08-23T10:41:05.364Z,38
2022-08-23T10:42:05.754Z,38
2022-08-23T10:43:06.210Z,38
2022-08-23T10:44:07.021Z,38
2022-08-23T10:45:07.426Z,38
2022-08-23T10:46:07.830Z,38
2022-08-23T10:47:08.327Z,38
2022-08-23T10:48:09.561Z,37
2022-08-23T10:49:10.394Z,37
2022-08-23T10:50:10.798Z,37
2022-08-23T10:51:11.200Z,36
2022-08-23T10:52:11.606Z,36
2022-08-23T10:53:11.972Z,37
2022-08-23T10:54:12.770Z,37
2022-08-23T10:55:13.186Z,37
2022-08-23T10:56:13.989Z,37
2022-08-23T10:57:14.393Z,37
2022-08-23T10:58:14.785Z,37
2022-08-23T10:59:15.539Z,37
2022-08-23T11:00:15.945Z,37
2022-08-23T11:01:16.366Z,36
2022-08-23T11:02:16.889Z,36
2022-08-23T11:03:17.302Z,36
2022-08-23T11:04:18.094Z,36
2022-08-23T11:05:18.488Z,36
2022-08-23T11:06:18.881Z,36
2022-08-23T11:07:19.279Z,36
2022-08-23T11:08:19.693Z,36
2022-08-23T11:09:20.373Z,36
2022-08-23T11:10:20.790Z,36
2022-08-23T11:11:21.498Z,34
2022-08-23T11:12:21.875Z,34
2022-08-23T11:13:22.251Z,34
2022-08-23T11:14:23.066Z,34
2022-08-23T11:15:23.477Z,34
2022-08-23T11:16:23.867Z,36
2022-08-23T11:17:24.243Z,36
2022-08-23T11:18:24.637Z,36
2022-08-23T11:19:25.332Z,36
2022-08-23T11:20:25.743Z,36
2022-08-23T11:21:26.152Z,36
2022-08-23T11:22:26.559Z,35
2022-08-23T11:23:26.950Z,35
2022-08-23T11:24:27.729Z,35
2022-08-23T11:25:28.100Z,35
2022-08-23T11:26:28.884Z,35
2022-08-23T11:27:29.282Z,35
2022-08-23T11:28:30.565Z,35
2022-08-23T11:29:31.383Z,35
2022-08-23T11:30:31.748Z,35
2022-08-23T11:31:32.159Z,33
2022-08-23T11:32:32.562Z,33
2022-08-23T11:33:32.961Z,33
2022-08-23T11:34:33.698Z,33
2022-08-23T11:35:34.084Z,33
2022-08-23T11:36:34.617Z,33
2022-08-23T11:37:34.989Z,34
2022-08-23T11:38:35.409Z,34
2022-08-23T11:39:36.208Z,33
2022-08-23T11:40:36.605Z,33
2022-08-23T11:41:37.379Z,33
2022-08-23T11:42:37.791Z,33
2022-08-23T11:43:38.198Z,33
2022-08-23T11:44:39.010Z,33
2022-08-23T11:45:39.439Z,33
2022-08-23T11:46:39.814Z,33
2022-08-23T11:47:40.204Z,33
2022-08-23T11:48:40.586Z,33
2022-08-23T11:49:44.698Z,33
2022-08-23T11:50:45.109Z,34
2022-08-23T11:51:45.475Z,34
2022-08-23T11:52:45.861Z,34
2022-08-23T11:53:46.265Z,34
2022-08-23T11:54:46.956Z,33
2022-08-23T11:55:47.357Z,34
2022-08-23T11:56:48.106Z,33
2022-08-23T11:57:48.537Z,33
2022-08-23T11:58:48.945Z,33
2022-08-23T11:59:49.837Z,33
2022-08-23T12:00:50.212Z,33
2022-08-23T12:01:50.627Z,33
2022-08-23T12:02:51.177Z,33
2022-08-23T12:03:51.760Z,33
2022-08-23T12:04:52.687Z,33
2022-08-23T12:05:53.088Z,33
2022-08-23T12:06:53.495Z,33
2022-08-23T12:07:54.022Z,32
2022-08-23T12:08:54.424Z,32
2022-08-23T12:09:55.220Z,32
2022-08-23T12:10:55.595Z,32
2022-08-23T12:11:56.296Z,32
2022-08-23T12:12:56.673Z,32
2022-08-23T12:13:57.072Z,32
2022-08-23T12:14:57.474Z,32
2022-08-23T12:15:57.904Z,33
2022-08-23T12:16:58.331Z,33
2022-08-23T12:17:58.932Z,33
2022-08-23T12:18:59.302Z,33
2022-08-23T12:19:59.994Z,33
2022-08-23T12:21:00.404Z,33
2022-08-23T12:22:00.774Z,33
2022-08-23T12:23:01.172Z,33
2022-08-23T12:24:01.611Z,33
2022-08-23T12:25:02.338Z,33
2022-08-23T12:26:02.737Z,33
2022-08-23T12:27:03.522Z,33
2022-08-23T12:28:03.917Z,32
2022-08-23T12:29:04.320Z,33
2022-08-23T12:30:05.071Z,33
2022-08-23T12:31:07.932Z,33
2022-08-23T12:32:13.745Z,33
2022-08-23T12:33:14.164Z,32
2022-08-23T12:34:14.568Z,32
2022-08-23T12:35:15.401Z,32
2022-08-23T12:36:16.723Z,32
2022-08-23T12:37:17.255Z,33
2022-08-23T12:38:17.663Z,33
2022-08-23T12:39:18.046Z,33
2022-08-23T12:40:18.933Z,33
2022-08-23T12:41:19.336Z,33
2022-08-23T12:42:20.119Z,33
2022-08-23T12:43:22.446Z,33
2022-08-23T12:44:23.314Z,33
2022-08-23T12:45:24.010Z,33
2022-08-23T12:46:24.431Z,33
2022-08-23T12:47:24.848Z,33
2022-08-23T12:48:25.257Z,33
2022-08-23T12:49:25.661Z,33
2022-08-23T12:50:32.469Z,33
2022-08-23T12:51:33.631Z,33
2022-08-23T12:52:34.146Z,33
2022-08-23T12:53:34.580Z,33
2022-08-23T12:54:35.391Z,33
2022-08-23T12:55:35.799Z,33
2022-08-23T12:56:36.211Z,33
2022-08-23T12:57:36.958Z,33
2022-08-23T12:58:37.354Z,32
2022-08-23T12:59:38.105Z,32
2022-08-23T13:00:38.515Z,32
2022-08-23T13:01:38.990Z,32
2022-08-23T13:02:39.423Z,32
2022-08-23T13:03:39.816Z,32
2022-08-23T13:04:40.626Z,32
2022-08-23T13:05:41.027Z,32
2022-08-23T13:06:42.355Z,32
2022-08-23T13:07:42.822Z,32
2022-08-23T13:08:43.220Z,32
2022-08-23T13:09:45.460Z,32
2022-08-23T13:10:55.844Z,32
2022-08-23T13:11:57.447Z,32
2022-08-23T13:12:58.371Z,32
2022-08-23T13:13:58.750Z,33
2022-08-23T13:14:59.148Z,33
2022-08-23T13:15:59.625Z,32
2022-08-23T13:17:00.041Z,32
2022-08-23T13:18:00.509Z,32
2022-08-23T13:19:01.032Z,32
2022-08-23T13:20:02.025Z,32
2022-08-23T13:21:02.422Z,32
2022-08-23T13:22:02.823Z,32
2022-08-23T13:23:03.511Z,32
2022-08-23T13:24:04.109Z,32
2022-08-23T13:25:28.179Z,32
2022-08-23T13:26:29.400Z,32
2022-08-23T13:27:38.298Z,32
2022-08-23T13:28:39.466Z,32
2022-08-23T13:29:39.853Z,32
2022-08-23T13:30:40.575Z,32
2022-08-23T13:31:40.969Z,33
2022-08-23T13:32:41.769Z,33
2022-08-23T13:33:42.326Z,33
2022-08-23T13:34:48.611Z,34
2022-08-23T13:35:50.357Z,34
2022-08-23T13:36:50.839Z,34
2022-08-23T13:37:52.295Z,34
2022-08-23T13:38:52.733Z,34
2022-08-23T13:39:53.533Z,34
2022-08-23T13:40:53.965Z,34
2022-08-23T13:41:54.367Z,33
2022-08-23T13:42:54.763Z,33
2022-08-23T13:43:55.693Z,34
2022-08-23T13:44:56.427Z,34
2022-08-23T13:45:56.884Z,34
2022-08-23T13:46:57.348Z,34
2022-08-23T13:47:57.745Z,34
2022-08-23T13:48:58.138Z,33
2022-08-23T13:49:58.847Z,33
2022-08-23T13:50:59.290Z,33
2022-08-23T13:52:17.206Z,33
2022-08-23T13:53:38.209Z,34
2022-08-23T13:54:38.961Z,34
2022-08-23T13:55:39.352Z,34
2022-08-23T13:56:39.718Z,34
2022-08-23T13:57:40.077Z,34
2022-08-23T13:58:40.472Z,35
2022-08-23T13:59:41.287Z,35
2022-08-23T14:00:45.944Z,34
2022-08-23T14:01:56.041Z,34
2022-08-23T14:02:56.546Z,34
2022-08-23T14:03:57.016Z,34
2022-08-23T14:04:57.887Z,34
2022-08-23T14:05:58.329Z,34
2022-08-23T14:06:58.718Z,33
2022-08-23T14:07:59.128Z,33
2022-08-23T14:08:59.495Z,33
2022-08-23T14:09:59.908Z,33
2022-08-23T14:11:00.308Z,33
2022-08-23T14:12:03.048Z,32
2022-08-23T14:13:04.445Z,32
2022-08-23T14:14:04.804Z,32
2022-08-23T14:15:05.621Z,33
2022-08-23T14:16:33.760Z,33
2022-08-23T14:17:34.763Z,33
2022-08-23T14:18:35.184Z,33
2022-08-23T14:21:07.704Z,33
2022-08-23T14:22:08.096Z,33
2022-08-23T14:23:12.165Z,33
2022-08-23T14:24:13.062Z,32
2022-08-23T14:25:13.871Z,33
2022-08-23T14:26:14.299Z,33
2022-08-23T14:27:14.704Z,33
2022-08-23T14:28:15.068Z,33
2022-08-23T14:29:15.568Z,33
2022-08-23T14:30:16.398Z,33
2022-08-23T14:31:16.788Z,32
2022-08-23T14:32:17.218Z,32
2022-08-23T14:33:17.592Z,32
2022-08-23T14:34:17.981Z,33
2022-08-23T14:35:18.680Z,33